Crystal Island — 3EZJ3 — position and weather

sailwx.info

Track history (hours):
 
Tides and Currents Weather Stations Pressure Air Temp Water Temp Dewpoint Dewpoint Depression Visibility Wind Speed Wind Dir Waves Ship Positions

Crystal Island

Last reported at 2016-Apr-30 04:30 UTC. Time now 2016-May-06 20:39 UTC.
Position N 01°11' E 103°39'.

Length 169 m; draft 9.2 m.

Type: Ship. MMSI: 372562000.

Date/timePositionNaut miles runAvg speedWind from/ knotsBaromVisibWave heightAir tempDewpointWater temp
2016-Apr-30 04:30N 01°11' E 103°39'1010.8
2016-Apr-30 03:33N 01°11' E 103°50'7 6.6
2016-Apr-30 02:33N 01°16' E 103°54'0 0.0
2016-Apr-30 01:18N 01°16' E 103°54'0 0.0
2016-Apr-30 00:33N 01°16' E 103°54'0 0.1
2016-Apr-29 23:33N 01°16' E 103°54'0 0.1
2016-Apr-29 22:33N 01°16' E 103°54'0 0.1
2016-Apr-29 21:33N 01°16' E 103°54'0 0.0
2016-Apr-29 20:33N 01°16' E 103°54'0 0.0
2016-Apr-29 19:33N 01°16' E 103°54'0 0.2
2016-Apr-29 18:30N 01°16' E 103°54'0 0.0
2016-Apr-29 17:33N 01°16' E 103°54'0 0.0
2016-Apr-29 16:33N 01°16' E 103°54'0 0.0
2016-Apr-29 15:33N 01°16' E 103°54'0 0.0
2016-Apr-29 14:33N 01°16' E 103°54'0 0.0
2016-Apr-29 13:33N 01°16' E 103°54'0 0.0
2016-Apr-29 12:33N 01°16' E 103°54'0 0.0
2016-Apr-29 11:33N 01°16' E 103°54'0 0.0
2016-Apr-29 10:33N 01°16' E 103°54'0 0.0
2016-Apr-29 09:33N 01°16' E 103°54'0 0.0
2016-Apr-29 08:33N 01°16' E 103°54'0 0.0
2016-Apr-29 07:33N 01°16' E 103°54'0 0.1
2016-Apr-29 06:27N 01°16' E 103°54'0 0.1
2016-Apr-29 05:27N 01°16' E 103°54'0 0.1
2016-Apr-29 04:15N 01°16' E 103°54'0 0.1
2016-Apr-29 03:30N 01°16' E 103°54'0 0.0
2016-Apr-29 02:33N 01°16' E 103°54'0 0.1
2016-Apr-29 01:33N 01°16' E 103°54'0 0.0
2016-Apr-29 00:33N 01°16' E 103°54'0 0.1
2016-Apr-28 23:33N 01°16' E 103°54'3 3.0
2016-Apr-28 22:33N 01°14' E 103°56'  
2016-Apr-24 09:33N 22°07' E 114°16'7 6.9
2016-Apr-24 08:32N 22°10' E 114°10'0 0.1
2016-Apr-24 02:33N 22°10' E 114°10'1010.0
2016-Apr-24 01:33N 22°08' E 114°21'34012.6
2016-Apr-22 22:30N 24°50' E 119°46'1211.8
2016-Apr-22 21:30N 24°58' E 119°56'394 9.9
2016-Apr-21 05:34N 31°21' E 121°40'8 8.3
2016-Apr-21 04:34N 31°25' E 121°32'7 6.7
2016-Apr-21 03:33N 31°29' E 121°26'1111.2
2016-Apr-21 02:34N 31°37' E 121°16'3 2.4
2016-Apr-21 01:25N 31°39' E 121°14'0 0.0
2016-Apr-21 00:22N 31°39' E 121°14'0 0.0
2016-Apr-20 23:28N 31°39' E 121°14'0 0.0
2016-Apr-20 22:28N 31°39' E 121°14'0 0.0
2016-Apr-20 21:31N 31°39' E 121°14'0 0.1
2016-Apr-20 20:17N 31°39' E 121°14'0 0.0
2016-Apr-20 19:10N 31°39' E 121°14'0 0.1
2016-Apr-20 18:28N 31°39' E 121°14'0 0.1
2016-Apr-20 17:11N 31°39' E 121°14'0 0.0
2016-Apr-20 16:25N 31°39' E 121°14'0 0.1
2016-Apr-20 14:05N 31°39' E 121°14'0 0.0
2016-Apr-20 13:23N 31°39' E 121°14'0 0.0
2016-Apr-20 12:28N 31°39' E 121°14'0 0.0
2016-Apr-20 10:31N 31°39' E 121°14'0 0.0
2016-Apr-20 08:28N 31°39' E 121°14'0 0.0
2016-Apr-20 07:22N 31°39' E 121°14'0 0.2
2016-Apr-20 06:28N 31°39' E 121°14'0 0.2
2016-Apr-20 05:28N 31°39' E 121°14'5 5.8
2016-Apr-20 04:33N 31°42' E 121°08'  
Track history (hours):
 
Tides and Currents Weather Stations Pressure Air Temp Water Temp Dewpoint Dewpoint Depression Visibility Wind Speed Wind Dir Waves Ship Positions

Crystal Island

Last reported at 2016-Apr-30 04:30 UTC. Time now 2016-May-06 20:39 UTC.
Position N 01°11' E 103°39'.

Length 169 m; draft 9.2 m.

Type: Ship. MMSI: 372562000.

Date/timePositionNaut miles runAvg speedWind from/ knotsBaromVisibWave heightAir tempDewpointWater temp
2016-Apr-30 04:30N 01°11' E 103°39'1010.8
2016-Apr-30 03:33N 01°11' E 103°50'7 6.6
2016-Apr-30 02:33N 01°16' E 103°54'0 0.0
2016-Apr-30 01:18N 01°16' E 103°54'0 0.0
2016-Apr-30 00:33N 01°16' E 103°54'0 0.1
2016-Apr-29 23:33N 01°16' E 103°54'0 0.1
2016-Apr-29 22:33N 01°16' E 103°54'0 0.1
2016-Apr-29 21:33N 01°16' E 103°54'0 0.0
2016-Apr-29 20:33N 01°16' E 103°54'0 0.0
2016-Apr-29 19:33N 01°16' E 103°54'0 0.2
2016-Apr-29 18:30N 01°16' E 103°54'0 0.0
2016-Apr-29 17:33N 01°16' E 103°54'0 0.0
2016-Apr-29 16:33N 01°16' E 103°54'0 0.0
2016-Apr-29 15:33N 01°16' E 103°54'0 0.0
2016-Apr-29 14:33N 01°16' E 103°54'0 0.0
2016-Apr-29 13:33N 01°16' E 103°54'0 0.0
2016-Apr-29 12:33N 01°16' E 103°54'0 0.0
2016-Apr-29 11:33N 01°16' E 103°54'0 0.0
2016-Apr-29 10:33N 01°16' E 103°54'0 0.0
2016-Apr-29 09:33N 01°16' E 103°54'0 0.0
2016-Apr-29 08:33N 01°16' E 103°54'0 0.0
2016-Apr-29 07:33N 01°16' E 103°54'0 0.1
2016-Apr-29 06:27N 01°16' E 103°54'0 0.1
2016-Apr-29 05:27N 01°16' E 103°54'0 0.1
2016-Apr-29 04:15N 01°16' E 103°54'0 0.1
2016-Apr-29 03:30N 01°16' E 103°54'0 0.0
2016-Apr-29 02:33N 01°16' E 103°54'0 0.1
2016-Apr-29 01:33N 01°16' E 103°54'0 0.0
2016-Apr-29 00:33N 01°16' E 103°54'0 0.1
2016-Apr-28 23:33N 01°16' E 103°54'3 3.0
2016-Apr-28 22:33N 01°14' E 103°56'  
2016-Apr-24 09:33N 22°07' E 114°16'7 6.9
2016-Apr-24 08:32N 22°10' E 114°10'0 0.1
2016-Apr-24 02:33N 22°10' E 114°10'1010.0
2016-Apr-24 01:33N 22°08' E 114°21'34012.6
2016-Apr-22 22:30N 24°50' E 119°46'1211.8
2016-Apr-22 21:30N 24°58' E 119°56'394 9.9
2016-Apr-21 05:34N 31°21' E 121°40'8 8.3
2016-Apr-21 04:34N 31°25' E 121°32'7 6.7
2016-Apr-21 03:33N 31°29' E 121°26'1111.2
2016-Apr-21 02:34N 31°37' E 121°16'3 2.4
2016-Apr-21 01:25N 31°39' E 121°14'0 0.0
2016-Apr-21 00:22N 31°39' E 121°14'0 0.0
2016-Apr-20 23:28N 31°39' E 121°14'0 0.0
2016-Apr-20 22:28N 31°39' E 121°14'0 0.0
2016-Apr-20 21:31N 31°39' E 121°14'0 0.1
2016-Apr-20 20:17N 31°39' E 121°14'0 0.0
2016-Apr-20 19:10N 31°39' E 121°14'0 0.1
2016-Apr-20 18:28N 31°39' E 121°14'0 0.1
2016-Apr-20 17:11N 31°39' E 121°14'0 0.0
2016-Apr-20 16:25N 31°39' E 121°14'0 0.1
2016-Apr-20 14:05N 31°39' E 121°14'0 0.0
2016-Apr-20 13:23N 31°39' E 121°14'0 0.0
2016-Apr-20 12:28N 31°39' E 121°14'0 0.0
2016-Apr-20 10:31N 31°39' E 121°14'0 0.0
2016-Apr-20 08:28N 31°39' E 121°14'0 0.0
2016-Apr-20 07:22N 31°39' E 121°14'0 0.2
2016-Apr-20 06:28N 31°39' E 121°14'0 0.2
2016-Apr-20 05:28N 31°39' E 121°14'5 5.8
2016-Apr-20 04:33N 31°42' E 121°08'  

Dump ship's entire track history